createdAt,value
2017-10-28T00:00:49.735Z,1021.49
2017-10-28T00:01:51.551Z,1021.54
2017-10-28T00:02:53.369Z,1021.47
2017-10-28T00:03:55.246Z,1021.46
2017-10-28T00:04:57.123Z,1021.48
2017-10-28T00:05:59.003Z,1021.50
2017-10-28T00:07:13.154Z,1021.49
2017-10-28T00:08:15.045Z,1021.47
2017-10-28T00:09:16.926Z,1021.48
2017-10-28T00:10:18.808Z,1021.44
2017-10-28T00:11:20.622Z,1021.48
2017-10-28T00:12:22.439Z,1021.45
2017-10-28T00:13:24.324Z,1021.42
2017-10-28T00:14:26.196Z,1021.40
2017-10-28T00:15:28.078Z,1021.40
2017-10-28T00:16:42.227Z,1021.37
2017-10-28T00:17:44.106Z,1021.32
2017-10-28T00:18:45.987Z,1021.31
2017-10-28T00:19:47.867Z,1021.30
2017-10-28T00:20:49.684Z,1021.29
2017-10-28T00:21:51.500Z,1021.22
2017-10-28T00:22:53.379Z,1021.23
2017-10-28T00:23:55.266Z,1021.24
2017-10-28T00:24:57.143Z,1021.14
2017-10-28T00:26:11.295Z,1021.17
2017-10-28T00:27:13.173Z,1021.04
2017-10-28T00:28:15.058Z,1020.99
2017-10-28T00:29:16.942Z,1020.96
2017-10-28T00:30:18.760Z,1020.99
2017-10-28T00:31:20.576Z,1020.96
2017-10-28T00:32:22.461Z,1020.95
2017-10-28T00:33:24.332Z,1020.90
2017-10-28T00:34:26.210Z,1020.91
2017-10-28T00:35:40.361Z,1020.88
2017-10-28T00:36:42.238Z,1020.81
2017-10-28T00:37:44.121Z,1020.79
2017-10-28T00:38:46.001Z,1020.80
2017-10-28T00:39:47.817Z,1020.78
2017-10-28T00:40:49.633Z,1020.75
2017-10-28T00:41:51.513Z,1020.77
2017-10-28T00:42:53.389Z,1020.74
2017-10-28T00:43:55.263Z,1020.76
2017-10-28T00:45:09.415Z,1020.71
2017-10-28T00:46:11.291Z,1020.77
2017-10-28T00:47:13.171Z,1020.74
2017-10-28T00:48:15.051Z,1020.78
2017-10-28T00:49:16.864Z,1020.73
2017-10-28T00:50:18.678Z,1020.79
2017-10-28T00:51:20.554Z,1020.75
2017-10-28T00:52:22.439Z,1020.79
2017-10-28T00:53:24.313Z,1020.81
2017-10-28T00:54:38.466Z,1020.80
2017-10-28T00:55:40.356Z,1020.77
2017-10-28T00:56:42.237Z,1020.77
2017-10-28T00:57:44.117Z,1020.79
2017-10-28T00:58:45.934Z,1020.81
2017-10-28T00:59:47.747Z,1020.78
2017-10-28T01:00:49.627Z,1020.80
2017-10-28T01:01:51.503Z,1020.74
2017-10-28T01:02:53.385Z,1020.72
2017-10-28T01:04:07.535Z,1020.73
2017-10-28T01:05:09.410Z,1020.66
2017-10-28T01:06:11.289Z,1020.66
2017-10-28T01:07:13.169Z,1020.70
2017-10-28T01:08:14.983Z,1020.65
2017-10-28T01:09:16.796Z,1020.67
2017-10-28T01:10:18.673Z,1020.60
2017-10-28T01:11:20.549Z,1020.62
2017-10-28T01:12:22.433Z,1020.62
2017-10-28T01:13:36.584Z,1020.59
2017-10-28T01:14:38.461Z,1020.55
2017-10-28T01:15:40.340Z,1020.58
2017-10-28T01:16:42.226Z,1020.53
2017-10-28T01:17:44.039Z,1020.52
2017-10-28T01:18:45.856Z,1020.51
2017-10-28T01:19:47.736Z,1020.51
2017-10-28T01:20:49.610Z,1020.49
2017-10-28T01:21:51.483Z,1020.47
2017-10-28T01:23:05.632Z,1020.46
2017-10-28T01:24:07.503Z,1020.51
2017-10-28T01:25:09.380Z,1020.46
2017-10-28T01:26:11.253Z,1020.49
2017-10-28T01:27:13.066Z,1020.47
2017-10-28T01:28:14.883Z,1020.58
2017-10-28T01:29:16.757Z,1020.51
2017-10-28T01:30:18.631Z,1020.46
2017-10-28T01:31:20.507Z,1020.43
2017-10-28T01:32:34.703Z,1020.36
2017-10-28T01:33:36.579Z,1020.42
2017-10-28T01:34:38.457Z,1020.37
2017-10-28T01:35:40.330Z,1020.38
2017-10-28T01:36:42.144Z,1020.41
2017-10-28T01:37:43.956Z,1020.29
2017-10-28T01:38:45.833Z,1020.29
2017-10-28T01:39:47.719Z,1020.23
2017-10-28T01:40:49.592Z,1020.27
2017-10-28T01:42:03.739Z,1020.32
2017-10-28T01:43:05.624Z,1020.33
2017-10-28T01:44:07.501Z,1020.37
2017-10-28T01:45:09.380Z,1020.39
2017-10-28T01:46:11.193Z,1020.46
2017-10-28T01:47:13.011Z,1020.48
2017-10-28T01:48:14.889Z,1020.52
2017-10-28T01:49:16.779Z,1020.57
2017-10-28T01:50:18.655Z,1020.85
2017-10-28T01:51:32.806Z,1020.52
2017-10-28T01:52:34.681Z,1020.47
2017-10-28T01:53:36.561Z,1020.59
2017-10-28T01:54:38.438Z,1020.50
2017-10-28T01:55:40.251Z,1020.46
2017-10-28T01:56:42.065Z,1020.53
2017-10-28T01:57:43.943Z,1020.61
2017-10-28T01:58:45.824Z,1020.66
2017-10-28T01:59:47.712Z,1020.36
2017-10-28T02:01:01.862Z,1020.29
2017-10-28T02:02:03.736Z,1020.37
2017-10-28T02:03:05.615Z,1020.35
2017-10-28T02:04:07.491Z,1020.34
2017-10-28T02:05:09.307Z,1020.32
2017-10-28T02:06:11.122Z,1020.33
2017-10-28T02:07:12.999Z,1020.30
2017-10-28T02:08:14.877Z,1020.30
2017-10-28T02:09:16.764Z,1020.35
2017-10-28T02:10:30.977Z,1020.29
2017-10-28T02:11:32.852Z,1020.20
2017-10-28T02:12:34.739Z,1020.32
2017-10-28T02:13:36.616Z,1020.22
2017-10-28T02:14:38.431Z,1020.21
2017-10-28T02:15:40.257Z,1020.12
2017-10-28T02:16:42.133Z,1020.13
2017-10-28T02:17:44.010Z,1020.12
2017-10-28T02:18:45.888Z,1020.03
2017-10-28T02:20:00.087Z,1020.03
2017-10-28T02:21:01.960Z,1019.97
2017-10-28T02:22:03.837Z,1019.98
2017-10-28T02:23:05.709Z,1019.97
2017-10-28T02:24:07.523Z,1019.91
2017-10-28T02:25:09.338Z,1019.96
2017-10-28T02:26:11.215Z,1019.97
2017-10-28T02:27:13.093Z,1019.88
2017-10-28T02:28:14.967Z,1019.82
2017-10-28T02:29:29.117Z,1019.80
2017-10-28T02:30:30.992Z,1019.74
2017-10-28T02:31:32.871Z,1019.76
2017-10-28T02:32:34.747Z,1019.74
2017-10-28T02:33:36.562Z,1019.73
2017-10-28T02:34:38.378Z,1019.63
2017-10-28T02:35:40.263Z,1019.65
2017-10-28T02:36:42.137Z,1019.59
2017-10-28T02:37:44.014Z,1019.64
2017-10-28T02:38:58.165Z,1019.63
2017-10-28T02:40:00.040Z,1019.68
2017-10-28T02:41:01.918Z,1019.62
2017-10-28T02:42:03.792Z,1019.55
2017-10-28T02:43:05.608Z,1019.63
2017-10-28T02:44:07.424Z,1019.64
2017-10-28T02:45:09.300Z,1019.58
2017-10-28T02:46:11.182Z,1019.57
2017-10-28T02:47:13.058Z,1019.59
2017-10-28T02:48:27.210Z,1019.57
2017-10-28T02:49:29.088Z,1019.55
2017-10-28T02:50:30.960Z,1019.52
2017-10-28T02:51:32.841Z,1019.51
2017-10-28T02:52:34.661Z,1019.50
2017-10-28T02:53:36.472Z,1019.52
2017-10-28T02:54:38.351Z,1019.52
2017-10-28T02:55:40.227Z,1019.48
2017-10-28T02:56:42.106Z,1019.41
2017-10-28T02:57:56.259Z,1019.45
2017-10-28T02:58:58.132Z,1019.43
2017-10-28T03:00:00.016Z,1019.37
2017-10-28T03:01:01.891Z,1019.35
2017-10-28T03:02:03.708Z,1019.31
2017-10-28T03:03:05.524Z,1019.30
2017-10-28T03:04:07.402Z,1019.30
2017-10-28T03:05:09.278Z,1019.31
2017-10-28T03:06:11.156Z,1019.29
2017-10-28T03:07:25.328Z,1019.27
2017-10-28T03:08:27.202Z,1019.27
2017-10-28T03:09:29.080Z,1019.27
2017-10-28T03:10:30.970Z,1019.20
2017-10-28T03:11:32.795Z,1019.19
2017-10-28T03:12:34.612Z,1019.14
2017-10-28T03:13:36.486Z,1019.14
2017-10-28T03:14:38.362Z,1019.14
2017-10-28T03:15:40.239Z,1019.11
2017-10-28T03:16:54.388Z,1019.08
2017-10-28T03:17:56.283Z,1019.05
2017-10-28T03:18:58.154Z,1019.02
2017-10-28T03:20:00.029Z,1019.04
2017-10-28T03:21:01.848Z,1019.15
2017-10-28T03:22:03.661Z,1019.04
2017-10-28T03:23:05.549Z,1019.05
2017-10-28T03:24:07.426Z,1019.10
2017-10-28T03:25:09.302Z,1019.09
2017-10-28T03:26:23.465Z,1019.15
2017-10-28T03:27:25.354Z,1019.16
2017-10-28T03:28:27.230Z,1019.16
2017-10-28T03:29:29.130Z,1019.11
2017-10-28T03:30:30.931Z,1019.06
2017-10-28T03:31:32.746Z,1018.98
2017-10-28T03:32:34.625Z,1019.01
2017-10-28T03:33:36.499Z,1019.05
2017-10-28T03:34:38.386Z,1019.00
2017-10-28T03:35:52.540Z,1019.08
2017-10-28T03:36:54.417Z,1019.03
2017-10-28T03:37:56.296Z,1019.00
2017-10-28T03:38:58.175Z,1018.99
2017-10-28T03:39:59.994Z,1018.94
2017-10-28T03:41:01.809Z,1019.00
2017-10-28T03:42:03.689Z,1019.05
2017-10-28T03:43:05.577Z,1018.95
2017-10-28T03:44:07.454Z,1018.88
2017-10-28T03:45:21.616Z,1018.89
2017-10-28T03:46:23.496Z,1018.89
2017-10-28T03:47:25.373Z,1018.95
2017-10-28T03:48:27.253Z,1018.89
2017-10-28T03:49:29.071Z,1018.89
2017-10-28T03:50:30.888Z,1018.89
2017-10-28T03:51:32.763Z,1018.90
2017-10-28T03:52:34.639Z,1018.84
2017-10-28T03:53:36.515Z,1019.04
2017-10-28T03:54:50.666Z,1018.86
2017-10-28T03:55:52.542Z,1018.87
2017-10-28T03:56:54.423Z,1019.00
2017-10-28T03:57:56.296Z,1018.84
2017-10-28T03:58:58.116Z,1018.82
2017-10-28T03:59:59.933Z,1018.82
2017-10-28T04:01:01.810Z,1018.80
2017-10-28T04:02:03.685Z,1018.80
2017-10-28T04:03:05.572Z,1018.81
2017-10-28T04:04:19.722Z,1018.83
2017-10-28T04:05:21.598Z,1018.74
2017-10-28T04:06:23.487Z,1018.77
2017-10-28T04:07:25.368Z,1018.78
2017-10-28T04:08:27.182Z,1018.79
2017-10-28T04:09:28.996Z,1018.71
2017-10-28T04:10:30.884Z,1018.71
2017-10-28T04:11:32.762Z,1018.72
2017-10-28T04:12:34.640Z,1018.70
2017-10-28T04:13:48.838Z,1018.66
2017-10-28T04:14:50.713Z,1018.68
2017-10-28T04:15:52.601Z,1018.62
2017-10-28T04:16:54.479Z,1018.59
2017-10-28T04:17:56.307Z,1018.62
2017-10-28T04:18:58.123Z,1018.58
2017-10-28T04:19:59.999Z,1018.60
2017-10-28T04:21:01.875Z,1018.59
2017-10-28T04:22:03.753Z,1018.60
2017-10-28T04:23:17.907Z,1018.56
2017-10-28T04:24:19.776Z,1018.54
2017-10-28T04:25:21.653Z,1018.49
2017-10-28T04:26:23.544Z,1018.53
2017-10-28T04:27:25.360Z,1018.51
2017-10-28T04:28:27.187Z,1018.48
2017-10-28T04:29:29.063Z,1018.45
2017-10-28T04:30:30.938Z,1018.40
2017-10-28T04:31:32.826Z,1018.36
2017-10-28T04:32:47.047Z,1018.32
2017-10-28T04:33:48.923Z,1018.36
2017-10-28T04:34:50.802Z,1018.33
2017-10-28T04:35:52.695Z,1018.29
2017-10-28T04:36:54.507Z,1018.29
2017-10-28T04:37:56.323Z,1018.24
2017-10-28T04:38:58.201Z,1018.28
2017-10-28T04:40:00.079Z,1018.30
2017-10-28T04:41:01.957Z,1018.29
2017-10-28T04:42:16.107Z,1018.29
2017-10-28T04:43:17.981Z,1018.30
2017-10-28T04:44:19.860Z,1018.26
2017-10-28T04:45:21.737Z,1018.25
2017-10-28T04:46:23.553Z,1018.15
2017-10-28T04:47:25.369Z,1018.15
2017-10-28T04:48:27.246Z,1018.15
2017-10-28T04:49:29.122Z,1018.14
2017-10-28T04:50:31.001Z,1018.09
2017-10-28T04:51:45.152Z,1018.15
2017-10-28T04:52:47.028Z,1018.07
2017-10-28T04:53:48.905Z,1018.05
2017-10-28T04:54:50.796Z,1018.05
2017-10-28T04:55:52.613Z,1018.01
2017-10-28T04:56:54.430Z,1018.04
2017-10-28T04:57:56.317Z,1018.00
2017-10-28T04:58:58.192Z,1018.01
2017-10-28T05:00:00.071Z,1018.01
2017-10-28T05:01:14.221Z,1017.95
2017-10-28T05:02:16.095Z,1017.97
2017-10-28T05:03:17.970Z,1017.98
2017-10-28T05:04:19.857Z,1017.99
2017-10-28T05:05:21.678Z,1017.87
2017-10-28T05:06:23.498Z,1017.98
2017-10-28T05:07:25.367Z,1017.89
2017-10-28T05:08:27.251Z,1017.84
2017-10-28T05:09:29.125Z,1017.89
2017-10-28T05:10:43.280Z,1017.89
2017-10-28T05:11:45.149Z,1017.93
2017-10-28T05:12:47.035Z,1017.93
2017-10-28T05:13:48.911Z,1017.88
2017-10-28T05:14:50.731Z,1017.87
2017-10-28T05:15:52.543Z,1017.87
2017-10-28T05:16:54.420Z,1017.84
2017-10-28T05:17:56.303Z,1017.88
2017-10-28T05:18:58.175Z,1017.85
2017-10-28T05:20:12.334Z,1017.80
2017-10-28T05:21:14.225Z,1017.83
2017-10-28T05:22:16.104Z,1017.81
2017-10-28T05:23:17.979Z,1017.75
2017-10-28T05:24:19.806Z,1017.79
2017-10-28T05:25:21.636Z,1017.72
2017-10-28T05:26:23.510Z,1017.78
2017-10-28T05:27:25.385Z,1017.73
2017-10-28T05:28:27.258Z,1017.70
2017-10-28T05:29:41.410Z,1017.68
2017-10-28T05:30:43.284Z,1017.63
2017-10-28T05:31:45.162Z,1017.68
2017-10-28T05:32:47.039Z,1017.60
2017-10-28T05:33:48.857Z,1017.64
2017-10-28T05:34:50.675Z,1017.66
2017-10-28T05:35:52.553Z,1017.71
2017-10-28T05:36:54.428Z,1017.69
2017-10-28T05:37:56.317Z,1017.71
2017-10-28T05:39:10.468Z,1017.71
2017-10-28T05:40:12.344Z,1017.77
2017-10-28T05:41:14.224Z,1017.63
2017-10-28T05:42:16.104Z,1017.64
2017-10-28T05:43:17.922Z,1017.71
2017-10-28T05:44:19.738Z,1017.57
2017-10-28T05:45:21.617Z,1017.60
2017-10-28T05:46:23.505Z,1017.68
2017-10-28T05:47:25.381Z,1017.55
2017-10-28T05:48:39.547Z,1017.56
2017-10-28T05:49:41.423Z,1017.49
2017-10-28T05:50:43.304Z,1017.50
2017-10-28T05:51:45.184Z,1017.53
2017-10-28T05:52:47.014Z,1017.45
2017-10-28T05:53:48.840Z,1017.46
2017-10-28T05:54:50.712Z,1017.44
2017-10-28T05:55:52.551Z,1017.44
2017-10-28T05:56:54.399Z,1017.37
2017-10-28T05:58:08.554Z,1017.36
2017-10-28T05:59:10.437Z,1017.34
2017-10-28T06:00:12.313Z,1017.33
2017-10-28T06:01:14.200Z,1017.35
2017-10-28T06:02:16.078Z,1017.28
2017-10-28T06:03:17.923Z,1017.34
2017-10-28T06:04:19.802Z,1017.17
2017-10-28T06:05:21.678Z,1017.21
2017-10-28T06:06:23.696Z,1017.21
2017-10-28T06:07:37.856Z,1017.18
2017-10-28T06:08:39.732Z,1017.24
2017-10-28T06:09:41.622Z,1017.23
2017-10-28T06:10:43.500Z,1017.21
2017-10-28T06:11:45.368Z,1017.22
2017-10-28T06:12:47.504Z,1017.21
2017-10-28T06:13:49.375Z,1017.18
2017-10-28T06:14:51.253Z,1017.16
2017-10-28T06:15:53.135Z,1017.10
2017-10-28T06:17:07.302Z,1017.13
2017-10-28T06:18:09.230Z,1017.10
2017-10-28T06:19:11.109Z,1017.13
2017-10-28T06:20:13.067Z,1017.09
2017-10-28T06:21:14.884Z,1017.10
2017-10-28T06:22:16.723Z,1017.11
2017-10-28T06:23:18.658Z,1017.10
2017-10-28T06:24:20.571Z,1017.09
2017-10-28T06:25:22.494Z,1017.07
2017-10-28T06:26:36.664Z,1017.19
2017-10-28T06:27:38.543Z,1017.08
2017-10-28T06:28:40.425Z,1017.05
2017-10-28T06:29:42.304Z,1016.97
2017-10-28T06:30:44.135Z,1017.07
2017-10-28T06:31:45.958Z,1016.95
2017-10-28T06:32:47.837Z,1016.94
2017-10-28T06:33:49.717Z,1016.99
2017-10-28T06:34:51.596Z,1016.93
2017-10-28T06:36:05.751Z,1016.95
2017-10-28T06:37:07.630Z,1016.91
2017-10-28T06:38:09.512Z,1016.89
2017-10-28T06:39:11.392Z,1016.97
2017-10-28T06:40:13.211Z,1016.95
2017-10-28T06:41:15.033Z,1016.91
2017-10-28T06:42:16.875Z,1016.81
2017-10-28T06:43:18.693Z,1016.91
2017-10-28T06:44:20.511Z,1016.98
2017-10-28T06:45:34.712Z,1016.94
2017-10-28T06:46:36.592Z,1016.83
2017-10-28T06:47:38.474Z,1016.90
2017-10-28T06:48:40.355Z,1017.06
2017-10-28T06:49:42.185Z,1016.96
2017-10-28T06:50:44.008Z,1017.01
2017-10-28T06:51:45.882Z,1016.91
2017-10-28T06:52:47.771Z,1016.94
2017-10-28T06:53:49.658Z,1017.01
2017-10-28T06:55:03.853Z,1017.02
2017-10-28T06:56:05.744Z,1017.01
2017-10-28T06:57:07.614Z,1017.04
2017-10-28T06:58:09.493Z,1017.03
2017-10-28T06:59:11.325Z,1017.09
2017-10-28T07:00:13.155Z,1017.05
2017-10-28T07:01:15.034Z,1017.08
2017-10-28T07:02:16.938Z,1017.16
2017-10-28T07:03:18.828Z,1017.10
2017-10-28T07:04:32.973Z,1017.18
2017-10-28T07:05:34.851Z,1017.12
2017-10-28T07:06:36.745Z,1017.13
2017-10-28T07:07:38.631Z,1017.11
2017-10-28T07:08:40.455Z,1017.10
2017-10-28T07:09:42.276Z,1017.10
2017-10-28T07:10:44.159Z,1017.05
2017-10-28T07:11:46.038Z,1017.04
2017-10-28T07:12:47.917Z,1017.00
2017-10-28T07:14:02.083Z,1017.03
2017-10-28T07:15:03.962Z,1016.92
2017-10-28T07:16:05.845Z,1016.95
2017-10-28T07:17:07.738Z,1016.95
2017-10-28T07:18:09.574Z,1017.01
2017-10-28T07:19:11.393Z,1016.96
2017-10-28T07:20:13.281Z,1017.09
2017-10-28T07:21:15.159Z,1017.03
2017-10-28T07:22:17.087Z,1017.03
2017-10-28T07:23:31.223Z,1016.96
2017-10-28T07:24:33.100Z,1016.96
2017-10-28T07:25:34.992Z,1016.97
2017-10-28T07:26:36.876Z,1016.97
2017-10-28T07:27:38.701Z,1016.90
2017-10-28T07:28:40.516Z,1016.94
2017-10-28T07:29:42.410Z,1016.91
2017-10-28T07:30:44.291Z,1016.97
2017-10-28T07:31:46.169Z,1016.95
2017-10-28T07:33:00.419Z,1017.05
2017-10-28T07:34:02.297Z,1017.00
2017-10-28T07:35:04.193Z,1017.04
2017-10-28T07:36:06.069Z,1016.91
2017-10-28T07:37:07.984Z,1016.93
2017-10-28T07:38:09.852Z,1016.98
2017-10-28T07:39:11.732Z,1016.95
2017-10-28T07:40:13.627Z,1016.93
2017-10-28T07:41:15.510Z,1016.90
2017-10-28T07:42:29.715Z,1016.87
2017-10-28T07:43:31.596Z,1016.92
2017-10-28T07:44:33.487Z,1016.84
2017-10-28T07:45:35.368Z,1016.78
2017-10-28T07:46:37.200Z,1016.73
2017-10-28T07:47:39.023Z,1016.75
2017-10-28T07:48:40.915Z,1016.72
2017-10-28T07:49:42.798Z,1016.76
2017-10-28T07:50:44.680Z,1016.66
2017-10-28T07:51:58.842Z,1016.74
2017-10-28T07:53:00.717Z,1016.79
2017-10-28T07:54:02.611Z,1016.76
2017-10-28T07:55:04.489Z,1016.76
2017-10-28T07:56:06.320Z,1016.72
2017-10-28T07:57:08.150Z,1016.58
2017-10-28T07:58:10.031Z,1016.54
2017-10-28T07:59:11.944Z,1016.62
2017-10-28T08:00:13.886Z,1016.56
2017-10-28T08:01:28.079Z,1016.55
2017-10-28T08:02:29.958Z,1016.53
2017-10-28T08:03:31.839Z,1016.49
2017-10-28T08:04:33.722Z,1016.50
2017-10-28T08:05:35.548Z,1016.45
2017-10-28T08:06:37.365Z,1016.58
2017-10-28T08:07:39.245Z,1016.54
2017-10-28T08:08:41.126Z,1016.66
2017-10-28T08:09:43.009Z,1016.77
2017-10-28T08:10:57.191Z,1016.78
2017-10-28T08:11:59.095Z,1016.76
2017-10-28T08:13:00.974Z,1016.71
2017-10-28T08:14:02.871Z,1016.75
2017-10-28T08:15:04.697Z,1016.63
2017-10-28T08:16:06.517Z,1016.58
2017-10-28T08:17:08.395Z,1016.43
2017-10-28T08:18:10.289Z,1016.24
2017-10-28T08:19:12.175Z,1016.29
2017-10-28T08:20:26.331Z,1016.28
2017-10-28T08:21:28.208Z,1016.30
2017-10-28T08:22:30.510Z,1016.18
2017-10-28T08:23:32.884Z,1016.23
2017-10-28T08:24:35.168Z,1016.19
2017-10-28T08:25:37.223Z,1016.19
2017-10-28T08:26:39.128Z,1016.04
2017-10-28T08:27:41.009Z,1016.15
2017-10-28T08:28:42.892Z,1016.09
2017-10-28T08:29:57.543Z,1016.02
2017-10-28T08:30:59.909Z,1016.19
2017-10-28T08:32:02.189Z,1016.07
2017-10-28T08:33:04.038Z,1016.08
2017-10-28T08:34:06.173Z,1016.23
2017-10-28T08:35:08.293Z,1016.13
2017-10-28T08:36:10.227Z,1016.12
2017-10-28T08:37:12.138Z,1016.08
2017-10-28T08:38:14.480Z,1016.06
2017-10-28T08:39:28.595Z,1015.90
2017-10-28T08:40:30.477Z,1015.95
2017-10-28T08:41:32.757Z,1015.89
2017-10-28T08:42:34.943Z,1015.94
2017-10-28T08:43:36.940Z,1015.84
2017-10-28T08:44:39.080Z,1015.87
2017-10-28T08:45:40.937Z,1015.92
2017-10-28T08:46:43.147Z,1015.91
2017-10-28T08:47:45.162Z,1015.93
2017-10-28T08:48:59.331Z,1015.93
2017-10-28T08:50:01.243Z,1016.02
2017-10-28T08:51:03.518Z,1015.92
2017-10-28T08:52:05.449Z,1016.02
2017-10-28T08:53:07.275Z,1015.90
2017-10-28T08:54:09.096Z,1015.90
2017-10-28T08:55:10.976Z,1015.92
2017-10-28T08:56:13.188Z,1015.91
2017-10-28T08:57:14.972Z,1015.85
2017-10-28T08:58:29.129Z,1015.79
2017-10-28T08:59:31.402Z,1015.82
2017-10-28T09:00:33.285Z,1015.87
2017-10-28T09:01:35.560Z,1015.80
2017-10-28T09:02:37.764Z,1015.77
2017-10-28T09:03:39.639Z,1015.78
2017-10-28T09:04:41.522Z,1015.62
2017-10-28T09:05:43.535Z,1015.63
2017-10-28T09:06:45.517Z,1015.61
2017-10-28T09:08:00.189Z,1015.59
2017-10-28T09:09:02.193Z,1015.54
2017-10-28T09:10:04.078Z,1015.47
2017-10-28T09:11:06.053Z,1015.46
2017-10-28T09:12:07.981Z,1015.49
2017-10-28T09:13:09.914Z,1015.61
2017-10-28T09:14:11.919Z,1015.51
2017-10-28T09:15:13.963Z,1015.65
2017-10-28T09:16:15.889Z,1015.43
2017-10-28T09:17:30.053Z,1015.48
2017-10-28T09:18:31.934Z,1015.37
2017-10-28T09:19:33.927Z,1015.47
2017-10-28T09:20:36.022Z,1015.53
2017-10-28T09:21:37.964Z,1015.52
2017-10-28T09:22:39.921Z,1015.45
2017-10-28T09:23:41.977Z,1015.38
2017-10-28T09:24:44.218Z,1015.37
2017-10-28T09:25:46.336Z,1015.39
2017-10-28T09:27:00.768Z,1015.34
2017-10-28T09:28:03.220Z,1015.41
2017-10-28T09:29:05.420Z,1015.34
2017-10-28T09:30:07.473Z,1015.30
2017-10-28T09:31:09.446Z,1015.33
2017-10-28T09:32:11.427Z,1015.31
2017-10-28T09:33:13.474Z,1015.24
2017-10-28T09:34:15.527Z,1015.25
2017-10-28T09:35:17.576Z,1015.24
2017-10-28T09:36:31.879Z,1015.24
2017-10-28T09:37:33.764Z,1015.24
2017-10-28T09:38:35.688Z,1015.31
2017-10-28T09:39:37.633Z,1015.12
2017-10-28T09:40:39.486Z,1015.13
2017-10-28T09:41:41.648Z,1015.23
2017-10-28T09:42:43.752Z,1015.04
2017-10-28T09:43:45.613Z,1015.15
2017-10-28T09:44:47.492Z,1015.09
2017-10-28T09:46:01.652Z,1015.07
2017-10-28T09:47:03.533Z,1015.30
2017-10-28T09:48:05.416Z,1015.20
2017-10-28T09:49:07.308Z,1015.14
2017-10-28T09:50:09.135Z,1015.19
2017-10-28T09:51:11.016Z,1015.15
2017-10-28T09:52:12.900Z,1015.19
2017-10-28T09:53:14.810Z,1015.11
2017-10-28T09:54:16.773Z,1015.19
2017-10-28T09:55:30.938Z,1015.16
2017-10-28T09:56:33.423Z,1015.17
2017-10-28T09:57:35.396Z,1015.17
2017-10-28T09:58:37.313Z,1015.06
2017-10-28T09:59:39.113Z,1014.97
2017-10-28T10:00:40.948Z,1014.94
2017-10-28T10:01:42.831Z,1014.98
2017-10-28T10:02:44.720Z,1015.00
2017-10-28T10:03:46.600Z,1014.93
2017-10-28T10:05:00.962Z,1014.90
2017-10-28T10:06:02.842Z,1014.76
2017-10-28T10:07:04.810Z,1014.70
2017-10-28T10:08:06.771Z,1014.49
2017-10-28T10:09:08.651Z,1014.56
2017-10-28T10:10:10.473Z,1014.60
2017-10-28T10:11:12.399Z,1014.53
2017-10-28T10:12:14.282Z,1014.54
2017-10-28T10:13:16.186Z,1014.61
2017-10-28T10:14:30.331Z,1014.57
2017-10-28T10:15:32.494Z,1014.66
2017-10-28T10:16:34.358Z,1014.65
2017-10-28T10:17:36.243Z,1014.61
2017-10-28T10:18:38.068Z,1014.58
2017-10-28T10:19:39.977Z,1014.58
2017-10-28T10:20:41.837Z,1014.50
2017-10-28T10:21:43.740Z,1014.41
2017-10-28T10:22:46.010Z,1014.29
2017-10-28T10:24:00.619Z,1014.30
2017-10-28T10:25:02.549Z,1014.18
2017-10-28T10:26:04.429Z,1014.13
2017-10-28T10:27:06.323Z,1014.33
2017-10-28T10:28:08.177Z,1014.22
2017-10-28T10:29:10.036Z,1014.20
2017-10-28T10:30:11.947Z,1014.34
2017-10-28T10:31:13.866Z,1014.37
2017-10-28T10:32:15.742Z,1014.33
2017-10-28T10:33:29.922Z,1014.31
2017-10-28T10:34:31.814Z,1014.31
2017-10-28T10:35:33.713Z,1014.30
2017-10-28T10:36:35.598Z,1014.26
2017-10-28T10:37:37.425Z,1014.18
2017-10-28T10:38:39.252Z,1014.15
2017-10-28T10:39:41.145Z,1014.07
2017-10-28T10:40:43.025Z,1014.15
2017-10-28T10:41:44.922Z,1014.06
2017-10-28T10:42:59.072Z,1014.06
2017-10-28T10:44:00.888Z,1014.09
2017-10-28T10:45:02.718Z,1014.14
2017-10-28T10:46:04.572Z,1014.03
2017-10-28T10:47:06.470Z,1014.08
2017-10-28T10:48:08.360Z,1014.13
2017-10-28T10:49:10.206Z,1014.07
2017-10-28T10:50:12.029Z,1014.06
2017-10-28T10:51:13.856Z,1014.20
2017-10-28T10:52:28.079Z,1014.14
2017-10-28T10:53:29.985Z,1014.18
2017-10-28T10:54:31.876Z,1013.96
2017-10-28T10:55:33.768Z,1013.90
2017-10-28T10:56:35.612Z,1014.00
2017-10-28T10:57:37.427Z,1014.03
2017-10-28T10:58:39.354Z,1013.94
2017-10-28T10:59:41.229Z,1013.91
2017-10-28T11:00:43.107Z,1013.97
2017-10-28T11:01:57.346Z,1013.97
2017-10-28T11:02:59.226Z,1013.86
2017-10-28T11:04:01.126Z,1013.95
2017-10-28T11:05:03.007Z,1013.89
2017-10-28T11:06:04.842Z,1013.82
2017-10-28T11:07:06.657Z,1013.81
2017-10-28T11:08:08.548Z,1013.84
2017-10-28T11:09:10.453Z,1013.79
2017-10-28T11:10:12.808Z,1013.85
2017-10-28T11:11:27.454Z,1013.88
2017-10-28T11:12:29.487Z,1013.77
2017-10-28T11:13:31.382Z,1013.68
2017-10-28T11:14:33.269Z,1013.73
2017-10-28T11:15:35.093Z,1013.71
2017-10-28T11:16:36.922Z,1013.73
2017-10-28T11:17:38.809Z,1013.58
2017-10-28T11:18:40.711Z,1013.50
2017-10-28T11:19:42.618Z,1013.55
2017-10-28T11:20:56.777Z,1013.60
2017-10-28T11:21:58.686Z,1013.60
2017-10-28T11:23:00.568Z,1013.59
2017-10-28T11:24:02.456Z,1013.57
2017-10-28T11:25:04.275Z,1013.59
2017-10-28T11:26:06.562Z,1013.44
2017-10-28T11:27:08.492Z,1013.56
2017-10-28T11:28:10.389Z,1013.45
2017-10-28T11:29:12.267Z,1013.53
2017-10-28T11:30:26.431Z,1013.55
2017-10-28T11:31:28.319Z,1013.60
2017-10-28T11:32:30.218Z,1013.65
2017-10-28T11:33:32.111Z,1013.57
2017-10-28T11:34:33.934Z,1013.48
2017-10-28T11:35:35.762Z,1013.38
2017-10-28T11:36:37.652Z,1013.32
2017-10-28T11:37:39.542Z,1013.30
2017-10-28T11:38:41.461Z,1013.35
2017-10-28T11:39:55.597Z,1013.32
2017-10-28T11:40:57.501Z,1013.27
2017-10-28T11:41:59.396Z,1013.26
2017-10-28T11:43:01.290Z,1013.22
2017-10-28T11:44:03.113Z,1013.28
2017-10-28T11:45:04.944Z,1013.27
2017-10-28T11:46:06.841Z,1013.14
2017-10-28T11:47:08.731Z,1012.97
2017-10-28T11:48:10.617Z,1012.92
2017-10-28T11:49:24.792Z,1012.90
2017-10-28T11:50:26.680Z,1012.87
2017-10-28T11:51:28.575Z,1012.95
2017-10-28T11:52:30.621Z,1012.84
2017-10-28T11:53:32.496Z,1012.82
2017-10-28T11:54:34.330Z,1012.82
2017-10-28T11:55:36.217Z,1012.72
2017-10-28T11:56:38.109Z,1012.87
2017-10-28T11:57:40.000Z,1012.85
2017-10-28T11:58:54.180Z,1012.91
2017-10-28T11:59:56.059Z,1012.91
2017-10-28T12:00:57.944Z,1012.90
2017-10-28T12:01:59.835Z,1012.88
2017-10-28T12:03:01.647Z,1012.94
2017-10-28T12:04:03.472Z,1012.94
2017-10-28T12:05:05.363Z,1012.81
2017-10-28T12:06:07.297Z,1012.79
2017-10-28T12:07:09.164Z,1012.76
2017-10-28T12:08:23.637Z,1012.77
2017-10-28T12:09:25.482Z,1012.68
2017-10-28T12:10:27.407Z,1012.69
2017-10-28T12:11:29.287Z,1012.64
2017-10-28T12:12:31.111Z,1012.58
2017-10-28T12:13:32.945Z,1012.43
2017-10-28T12:14:34.835Z,1012.60
2017-10-28T12:15:36.737Z,1012.61
2017-10-28T12:16:38.626Z,1012.55
2017-10-28T12:17:52.831Z,1012.55
2017-10-28T12:18:54.727Z,1012.56
2017-10-28T12:19:56.627Z,1012.56
2017-10-28T12:20:58.511Z,1012.52
2017-10-28T12:22:00.366Z,1012.54
2017-10-28T12:23:02.561Z,1012.54
2017-10-28T12:24:04.447Z,1012.67
2017-10-28T12:25:06.347Z,1012.53
2017-10-28T12:26:08.224Z,1012.54
2017-10-28T12:27:22.385Z,1012.56
2017-10-28T12:28:24.302Z,1012.52
2017-10-28T12:29:26.168Z,1012.38
2017-10-28T12:30:28.072Z,1012.39
2017-10-28T12:31:29.895Z,1012.45
2017-10-28T12:32:31.723Z,1012.29
2017-10-28T12:33:33.609Z,1012.40
2017-10-28T12:34:35.526Z,1012.30
2017-10-28T12:35:37.391Z,1012.34
2017-10-28T12:36:51.560Z,1012.32
2017-10-28T12:37:53.444Z,1012.33
2017-10-28T12:38:55.346Z,1012.34
2017-10-28T12:39:57.272Z,1012.27
2017-10-28T12:40:59.093Z,1012.10
2017-10-28T12:42:00.914Z,1012.18
2017-10-28T12:43:02.799Z,1012.25
2017-10-28T12:44:04.649Z,1012.20
2017-10-28T12:45:06.468Z,1012.17